Item Display Status Inductive CT Sensor

Mooring Depth: 80 m

 

Deployed Sensor

  • Serial Number: 4404
  • NDBC Property Number: 25265
  • Start Date: 1/30/2015 (12:57:28 Z)
  • End Date: 2/26/2016 (16:48:00 Z)
Water Temperature [°C]     6 entries per hour
Showing data from 10/20/2015 (20:00:00 Z) to 10/19/2015 (00:00:01 Z)
Previous Next [ Day | 3-Days | 7-Days ]
First Last
Prev [ Day | 3-Days | 7-Days ] Next
First Last

Start Time:     :
End Time:     :     
Time (in GMT) :00 :50 :40 :30 :20 :10
Previous Next [ Day | 3-Days | 7-Days ]
First Last
Prev [ Day | 3-Days | 7-Days ] Next
First Last


123 => good data
MM => data is determined as missing
-- => data not received/configured
Back to Top Back to Top
10/20/2015 20:00 to 19:10 28.511 28.508 28.505 28.501 28.506 28.511
10/20/2015 19:00 to 18:10 28.499 28.496 28.492 28.492 28.483 28.493
10/20/2015 18:00 to 17:10 28.490 28.487 28.484 28.481 28.484 28.480
10/20/2015 17:00 to 16:10 28.488 28.499 28.489 28.489 28.480 28.490
10/20/2015 16:00 to 15:10 28.480 28.490 28.468 28.465 -- --
10/20/2015 15:00 to 14:10 28.450 28.464 28.465 28.467 28.444 28.462
10/20/2015 14:00 to 13:10 28.472 28.477 28.469 28.472 28.467 28.475
10/20/2015 13:00 to 12:10 28.474 28.486 28.500 28.489 28.494 28.498
10/20/2015 12:00 to 11:10 28.486 28.507 28.507 28.499 28.501 28.492
10/20/2015 11:00 to 10:10 28.490 28.499 28.494 28.494 28.492 28.488
10/20/2015 10:00 to 9:10 28.488 28.485 28.482 28.491 28.473 28.479
10/20/2015 09:00 to 8:10 28.486 28.484 28.485 28.478 28.474 28.464
10/20/2015 08:00 to 7:10 28.467 28.460 28.458 28.464 28.453 28.454
10/20/2015 07:00 to 6:10 28.457 28.443 28.433 28.435 28.419 28.411
10/20/2015 06:00 to 5:10 28.403 28.413 28.416 28.399 28.400 28.409
10/20/2015 05:00 to 4:10 28.414 28.384 28.399 28.379 28.399 28.393
10/20/2015 04:00 to 3:10 28.383 28.387 28.382 28.386 28.388 28.381
10/20/2015 03:00 to 2:10 28.386 28.401 28.372 28.378 28.362 28.361
10/20/2015 02:00 to 1:10 28.366 28.387 28.398 28.381 28.379 28.398
10/20/2015 01:00 to 0:10 28.383 28.398 28.405 28.402 28.415 28.404
10/20/2015 00:00 to 23:10 28.407 28.448 28.371 28.419 28.332 28.395
10/19/2015 23:00 to 22:10 28.425 28.338 28.327 28.459 28.404 28.367
10/19/2015 22:00 to 21:10 28.336 28.355 28.372 28.339 28.332 28.325
10/19/2015 21:00 to 20:10 28.352 28.332 28.374 28.355 28.308 28.331
10/19/2015 20:00 to 19:10 28.317 28.269 28.272 28.287 28.200 28.122
10/19/2015 19:00 to 18:10 28.262 28.222 28.205 28.221 28.235 28.170
10/19/2015 18:00 to 17:10 28.222 28.151 28.308 28.164 28.212 28.245
10/19/2015 17:00 to 16:10 28.229 28.217 28.150 28.270 28.080 28.105
10/19/2015 16:00 to 15:10 28.141 28.171 28.094 28.111 28.082 28.079
10/19/2015 15:00 to 14:10 28.076 28.075 28.035 28.096 28.111 28.134
10/19/2015 14:00 to 13:10 28.070 28.112 28.016 28.080 28.135 28.112
10/19/2015 13:00 to 12:10 28.146 28.133 28.177 28.234 28.252 28.239
10/19/2015 12:00 to 11:10 28.282 28.285 28.305 28.295 28.278 28.280
10/19/2015 11:00 to 10:10 28.241 28.231 28.238 28.239 28.205 28.279
10/19/2015 10:00 to 9:10 28.242 28.260 28.254 28.284 28.242 28.267
10/19/2015 09:00 to 8:10 28.342 28.259 28.245 28.281 28.214 28.226
10/19/2015 08:00 to 7:10 28.234 28.216 28.248 28.302 28.351 28.267
10/19/2015 07:00 to 6:10 28.304 28.284 28.288 28.335 28.262 28.256
10/19/2015 06:00 to 5:10 28.345 28.330 28.323 28.368 28.314 28.286
10/19/2015 05:00 to 4:10 28.282 28.277 28.357 28.400 28.412 28.419
10/19/2015 04:00 to 3:10 28.462 28.470 28.439 28.466 28.445 28.442
10/19/2015 03:00 to 2:10 28.456 28.426 28.468 28.475 28.456 28.475
10/19/2015 02:00 to 1:10 28.452 28.445 28.460 28.444 28.461 28.471
10/19/2015 01:00 to 0:10 28.441 28.425 28.445 28.480 28.484 28.504

 

 

 

Conductivity [S/m]     6 entries per hour
Showing data from 10/20/2015 (20:00:00 Z) to 10/19/2015 (00:00:01 Z)
Previous Next [ Day | 3-Days | 7-Days ]
First Last
Prev [ Day | 3-Days | 7-Days ] Next
First Last

Start Time:     :
End Time:     :     
Time (in GMT) :00 :50 :40 :30 :20 :10
Previous Next [ Day | 3-Days | 7-Days ]
First Last
Prev [ Day | 3-Days | 7-Days ] Next
First Last


123 => good data
MM => data is determined as missing
-- => data not received/configured
Back to Top Back to Top
10/20/2015 20:00 to 19:10 5.68296 5.68277 5.68252 5.68246 5.68302 5.68351
10/20/2015 19:00 to 18:10 5.68296 5.68269 5.68241 5.68246 5.68188 5.68236
10/20/2015 18:00 to 17:10 5.68199 5.68171 5.68124 5.68116 5.68121 5.68135
10/20/2015 17:00 to 16:10 5.68133 5.68241 5.68166 5.68158 5.68080 5.68154
10/20/2015 16:00 to 15:10 5.68088 5.68169 5.68019 5.67977 5.68055 5.68011
10/20/2015 15:00 to 14:10 5.67855 5.67903 5.67911 5.67947 5.67772 5.67933
10/20/2015 14:00 to 13:10 5.67997 5.68077 5.67986 5.68008 5.67969 5.68036
10/20/2015 13:00 to 12:10 5.68011 5.68074 5.68088 5.68080 5.68080 5.68080
10/20/2015 12:00 to 11:10 5.68077 5.68157 5.68130 5.68105 5.68099 5.68063
10/20/2015 11:00 to 10:10 5.68052 5.68016 5.67997 5.67991 5.67969 5.67951
10/20/2015 10:00 to 9:10 5.67930 5.67927 5.67922 5.67883 5.67883 5.67869
10/20/2015 09:00 to 8:10 5.67844 5.67833 5.67833 5.67778 5.67736 5.67721
10/20/2015 08:00 to 7:10 5.67730 5.67695 5.67683 5.67725 5.67675 5.67705
10/20/2015 07:00 to 6:10 5.67794 5.67614 5.67528 5.67564 5.67445 5.67385
10/20/2015 06:00 to 5:10 5.67315 5.67459 5.67445 5.67310 5.67321 5.67365
10/20/2015 05:00 to 4:10 5.67346 5.67216 5.67213 5.67064 5.67188 5.67116
10/20/2015 04:00 to 3:10 5.67113 5.67099 5.67072 5.67113 5.67094 5.67099
10/20/2015 03:00 to 2:10 5.67083 5.67199 5.67005 5.67050 5.66906 5.66889
10/20/2015 02:00 to 1:10 5.66936 5.67110 5.67180 5.67064 5.67039 5.67130
10/20/2015 01:00 to 0:10 5.67099 5.67108 5.67205 5.67146 5.67221 5.67113
10/20/2015 00:00 to 23:10 5.67110 5.67381 5.66834 5.67171 5.66616 5.66955
10/19/2015 23:00 to 22:10 5.67199 5.66651 5.66505 5.67467 5.67036 5.66809
10/19/2015 22:00 to 21:10 5.66552 5.66701 5.66828 5.66560 5.66516 5.66436
10/19/2015 21:00 to 20:10 5.66627 5.66475 5.66886 5.66687 5.66339 5.66516
10/19/2015 20:00 to 19:10 5.66419 5.66096 5.66013 5.66049 5.65484 5.64972
10/19/2015 19:00 to 18:10 5.65925 5.65647 5.65592 5.65697 5.65768 5.65255
10/19/2015 18:00 to 17:10 5.65658 5.65013 5.66359 5.65280 5.65572 5.65867
10/19/2015 17:00 to 16:10 5.65818 5.65716 5.65098 5.65856 5.64441 5.64815
10/19/2015 16:00 to 15:10 5.65074 5.65225 5.64562 5.64699 5.64689 5.64537
10/19/2015 15:00 to 14:10 5.64477 5.64477 5.64251 5.64471 5.64702 5.64986
10/19/2015 14:00 to 13:10 5.64433 5.64818 5.63987 5.64410 5.64859 5.64727
10/19/2015 13:00 to 12:10 5.64972 5.64977 5.65302 5.65851 5.65945 5.65901
10/19/2015 12:00 to 11:10 5.66254 5.66276 5.66361 5.66389 5.66212 5.66168
10/19/2015 11:00 to 10:10 5.65837 5.65740 5.65735 5.65807 5.65578 5.66152
10/19/2015 10:00 to 9:10 5.65914 5.66041 5.65878 5.66298 5.65884 5.66221
10/19/2015 09:00 to 8:10 5.66815 5.66163 5.66044 5.66320 5.65868 5.65992
10/19/2015 08:00 to 7:10 5.65964 5.65834 5.66102 5.66478 5.66826 5.66246
10/19/2015 07:00 to 6:10 5.66525 5.66268 5.66406 5.66693 5.66135 5.66158
10/19/2015 06:00 to 5:10 5.66853 5.66826 5.66677 5.66983 5.66533 5.66295
10/19/2015 05:00 to 4:10 5.66389 5.66248 5.66845 5.67188 5.67293 5.67357
10/19/2015 04:00 to 3:10 5.67731 5.67786 5.67526 5.67750 5.67578 5.67532
10/19/2015 03:00 to 2:10 5.67647 5.67396 5.67750 5.67808 5.67661 5.67800
10/19/2015 02:00 to 1:10 5.67664 5.67559 5.67728 5.67606 5.67731 5.67757
10/19/2015 01:00 to 0:10 5.67553 5.67401 5.67570 5.67825 5.67883 5.67984

 

 

 

Salinity [psu]     6 entries per hour
Showing data from 10/20/2015 (20:00:00 Z) to 10/19/2015 (00:00:01 Z)
Previous Next [ Day | 3-Days | 7-Days ]
First Last
Prev [ Day | 3-Days | 7-Days ] Next
First Last

Start Time:     :
End Time:     :     
Time (in GMT) :00 :50 :40 :30 :20 :10
Previous Next [ Day | 3-Days | 7-Days ]
First Last
Prev [ Day | 3-Days | 7-Days ] Next
First Last


123 => good data
MM => data is determined as missing
-- => data not received/configured
Back to Top Back to Top
10/20/2015 20:00 to 19:10 35.02 35.02 35.02 35.02 35.02 35.02
10/20/2015 19:00 to 18:10 35.03 35.03 35.03 35.03 35.03 35.03
10/20/2015 18:00 to 17:10 35.03 35.03 35.03 35.03 35.03 35.03
10/20/2015 17:00 to 16:10 35.02 35.02 35.02 35.02 35.03 35.02
10/20/2015 16:00 to 15:10 35.03 35.02 35.03 35.03 -- --
10/20/2015 15:00 to 14:10 35.03 35.03 35.02 35.03 35.03 35.03
10/20/2015 14:00 to 13:10 35.03 35.03 35.03 35.03 35.03 35.03
10/20/2015 13:00 to 12:10 35.03 35.02 35.01 35.02 35.02 35.01
10/20/2015 12:00 to 11:10 35.02 35.01 35.01 35.01 35.01 35.02
10/20/2015 11:00 to 10:10 35.02 35.01 35.01 35.01 35.01 35.01
10/20/2015 10:00 to 9:10 35.01 35.01 35.01 35.00 35.02 35.01
10/20/2015 09:00 to 8:10 35.00 35.01 35.00 35.01 35.01 35.01
10/20/2015 08:00 to 7:10 35.01 35.01 35.01 35.01 35.02 35.02
10/20/2015 07:00 to 6:10 35.02 35.02 35.02 35.02 35.03 35.03
10/20/2015 06:00 to 5:10 35.03 35.03 35.03 35.03 35.03 35.03
10/20/2015 05:00 to 4:10 35.02 35.04 35.03 35.03 35.02 35.02
10/20/2015 04:00 to 3:10 35.03 35.03 35.03 35.03 35.03 35.03
10/20/2015 03:00 to 2:10 35.03 35.02 35.03 35.03 35.03 35.03
10/20/2015 02:00 to 1:10 35.03 35.03 35.02 35.03 35.03 35.02
10/20/2015 01:00 to 0:10 35.03 35.02 35.02 35.02 35.01 35.01
10/20/2015 00:00 to 23:10 35.01 35.00 35.02 35.01 35.03 35.01
10/19/2015 23:00 to 22:10 35.01 35.03 35.03 35.00 35.01 35.02
10/19/2015 22:00 to 21:10 35.03 35.02 35.02 35.02 35.03 35.03
10/19/2015 21:00 to 20:10 35.02 35.02 35.02 35.02 35.03 35.03
10/19/2015 20:00 to 19:10 35.03 35.04 35.04 35.03 35.05 35.07
10/19/2015 19:00 to 18:10 35.04 35.05 35.06 35.05 35.05 35.06
10/19/2015 18:00 to 17:10 35.05 35.06 35.03 35.06 35.05 35.05
10/19/2015 17:00 to 16:10 35.05 35.06 35.06 35.03 35.07 35.08
10/19/2015 16:00 to 15:10 35.07 35.06 35.07 35.06 35.08 35.08
10/19/2015 15:00 to 14:10 35.07 35.07 35.09 35.06 35.06 35.07
10/19/2015 14:00 to 13:10 35.08 35.07 35.08 35.07 35.06 35.06
10/19/2015 13:00 to 12:10 35.06 35.07 35.06 35.05 35.05 35.05
10/19/2015 12:00 to 11:10 35.04 35.04 35.04 35.04 35.05 35.04
10/19/2015 11:00 to 10:10 35.05 35.05 35.04 35.05 35.06 35.04
10/19/2015 10:00 to 9:10 35.05 35.05 35.04 35.05 35.05 35.05
10/19/2015 09:00 to 8:10 35.04 35.06 35.06 35.05 35.07 35.07
10/19/2015 08:00 to 7:10 35.06 35.07 35.06 35.05 35.03 35.06
10/19/2015 07:00 to 6:10 35.05 35.04 35.05 35.04 35.05 35.06
10/19/2015 06:00 to 5:10 35.04 35.05 35.04 35.03 35.04 35.04
10/19/2015 05:00 to 4:10 35.05 35.05 35.03 35.02 35.02 35.02
10/19/2015 04:00 to 3:10 35.01 35.01 35.02 35.01 35.02 35.02
10/19/2015 03:00 to 2:10 35.01 35.02 35.01 35.01 35.01 35.01
10/19/2015 02:00 to 1:10 35.02 35.02 35.02 35.02 35.02 35.01
10/19/2015 01:00 to 0:10 35.02 35.02 35.02 35.01 35.01 35.00